createdAt,value
2023-02-11T00:00:15.804Z,76.904077
2023-02-11T00:05:16.128Z,58.770052
2023-02-11T00:10:15.554Z,56.273499
2023-02-11T00:15:16.751Z,41.516284
2023-02-11T00:20:16.232Z,33.850561
2023-02-11T00:25:16.851Z,37.229627
2023-02-11T00:30:15.848Z,33.110949
2023-02-11T00:35:16.215Z,28.515118
2023-02-11T00:40:15.649Z,23.859195
2023-02-11T00:45:16.063Z,22.037632
2023-02-11T00:50:16.398Z,19.096095
2023-02-11T00:55:16.128Z,16.187960
2023-02-11T01:00:16.795Z,13.512136
2023-02-11T01:05:16.093Z,10.839472
2023-02-11T01:10:16.460Z,8.299077
2023-02-11T01:15:15.684Z,5.654234
2023-02-11T01:20:17.304Z,3.238460
2023-02-11T01:25:15.710Z,1.178810
2023-02-11T01:30:16.019Z,0.174171
2023-02-11T01:35:17.303Z,0.016272
2023-02-11T01:40:15.771Z,0.000000
2023-02-11T01:45:15.736Z,0.000000
2023-02-11T01:50:20.758Z,0.000000
2023-02-11T01:55:16.749Z,0.000000
2023-02-11T02:00:16.572Z,0.000000
2023-02-11T02:05:16.196Z,0.000000
2023-02-11T02:10:15.862Z,0.000000
2023-02-11T02:15:17.160Z,0.000000
2023-02-11T02:20:16.170Z,0.000000
2023-02-11T02:25:16.038Z,0.002370
2023-02-11T02:30:16.541Z,0.000000
2023-02-11T02:35:15.980Z,0.000000
2023-02-11T02:40:16.412Z,0.000000
2023-02-11T02:45:21.413Z,0.000000
2023-02-11T02:50:16.781Z,0.000000
2023-02-11T02:55:16.363Z,0.000000
2023-02-11T03:00:16.900Z,0.000000
2023-02-11T03:05:15.725Z,0.000000
2023-02-11T03:10:15.821Z,0.000000
2023-02-11T03:15:16.583Z,0.000000
2023-02-11T03:20:16.704Z,0.000000
2023-02-11T03:25:16.555Z,0.000000
2023-02-11T03:30:16.036Z,0.000000
2023-02-11T03:35:15.976Z,0.000000
2023-02-11T03:40:16.029Z,0.000000
2023-02-11T03:45:15.621Z,0.000000
2023-02-11T03:50:16.162Z,0.000000
2023-02-11T03:55:15.660Z,0.000000
2023-02-11T04:00:17.501Z,0.000000
2023-02-11T04:05:16.623Z,0.000000
2023-02-11T04:10:16.373Z,0.000000
2023-02-11T04:15:16.611Z,0.000000
2023-02-11T04:20:17.075Z,0.002308
2023-02-11T04:25:17.105Z,0.000000
2023-02-11T04:30:15.628Z,0.000000
2023-02-11T04:35:16.881Z,0.000000
2023-02-11T04:40:19.065Z,0.000000
2023-02-11T04:45:21.179Z,0.000000
2023-02-11T04:50:20.588Z,0.000000
2023-02-11T04:55:27.750Z,0.000000
2023-02-11T05:00:19.192Z,0.000000
2023-02-11T05:05:16.761Z,0.000000
2023-02-11T05:10:19.613Z,0.000000
2023-02-11T05:15:21.557Z,0.000000
2023-02-11T05:20:26.389Z,0.000000
2023-02-11T05:25:18.961Z,0.000000
2023-02-11T05:30:18.921Z,0.000000
2023-02-11T05:35:21.196Z,0.000000
2023-02-11T05:40:22.219Z,0.000000
2023-02-11T05:45:25.849Z,0.000000
2023-02-11T05:50:20.877Z,0.000000
2023-02-11T05:55:18.726Z,0.000000
2023-02-11T06:00:19.539Z,0.000000
2023-02-11T06:05:20.151Z,0.000000
2023-02-11T06:10:23.373Z,0.000000
2023-02-11T06:15:22.078Z,0.000000
2023-02-11T06:20:25.623Z,0.000000
2023-02-11T06:25:19.234Z,0.000000
2023-02-11T06:30:19.067Z,0.000000
2023-02-11T06:35:17.249Z,0.000000
2023-02-11T06:40:20.127Z,0.000000
2023-02-11T06:45:18.605Z,0.000000
2023-02-11T06:50:22.271Z,0.000000
2023-02-11T06:55:20.222Z,0.000000
2023-02-11T07:00:16.567Z,0.000000
2023-02-11T07:05:23.867Z,0.000000
2023-02-11T07:10:25.906Z,0.000000
2023-02-11T07:15:19.209Z,0.000000
2023-02-11T07:20:25.952Z,0.000000
2023-02-11T07:25:18.559Z,0.000000
2023-02-11T07:30:19.355Z,0.000000
2023-02-11T07:35:26.259Z,0.000000
2023-02-11T07:40:17.411Z,0.000000
2023-02-11T07:45:20.205Z,0.000000
2023-02-11T07:50:18.109Z,0.000000
2023-02-11T07:55:25.004Z,0.000000
2023-02-11T08:00:26.064Z,0.000000
2023-02-11T08:05:20.330Z,0.000000
2023-02-11T08:10:18.699Z,0.000000
2023-02-11T08:15:19.210Z,0.000000
2023-02-11T08:20:18.597Z,0.000000
2023-02-11T08:25:17.472Z,0.000000
2023-02-11T08:30:19.757Z,0.000000
2023-02-11T08:35:19.744Z,0.000000
2023-02-11T08:40:20.140Z,0.000000
2023-02-11T08:45:19.775Z,0.000000
2023-02-11T08:50:21.150Z,0.000000
2023-02-11T08:55:17.780Z,0.000000
2023-02-11T09:00:15.676Z,0.000000
2023-02-11T09:05:21.191Z,0.000000
2023-02-11T09:10:17.009Z,0.000000
2023-02-11T09:15:20.974Z,0.000000
2023-02-11T09:20:19.922Z,0.000000
2023-02-11T09:25:19.923Z,0.000000
2023-02-11T09:30:16.944Z,0.000000
2023-02-11T09:35:17.688Z,0.000000
2023-02-11T09:40:15.715Z,0.000000
2023-02-11T09:45:21.341Z,0.000000
2023-02-11T09:50:20.171Z,0.000000
2023-02-11T09:55:24.693Z,0.000000
2023-02-11T10:00:29.699Z,0.000000
2023-02-11T10:05:22.607Z,0.000000
2023-02-11T10:10:25.054Z,0.000000
2023-02-11T10:15:19.442Z,0.002219
2023-02-11T10:20:29.303Z,0.000000
2023-02-11T10:25:16.170Z,0.000000
2023-02-11T10:30:32.650Z,0.000000
2023-02-11T10:35:26.871Z,0.000000
2023-02-11T10:40:37.033Z,0.000000
2023-02-11T10:45:21.395Z,0.000000
2023-02-11T10:50:22.807Z,0.000000
2023-02-11T10:55:20.550Z,0.000000
2023-02-11T11:00:24.743Z,0.000000
2023-02-11T11:05:25.953Z,0.000000
2023-02-11T11:10:15.922Z,0.000000
2023-02-11T11:15:15.987Z,0.000000
2023-02-11T11:20:28.777Z,0.000000
2023-02-11T11:25:16.899Z,0.000000
2023-02-11T11:30:15.965Z,0.000000
2023-02-11T11:35:16.461Z,0.000000
2023-02-11T11:40:23.632Z,0.000000
2023-02-11T11:45:25.219Z,0.000000
2023-02-11T11:50:26.430Z,0.000000
2023-02-11T11:55:26.536Z,0.000000
2023-02-11T12:00:17.030Z,0.000000
2023-02-11T12:05:17.618Z,0.000000
2023-02-11T12:10:16.113Z,0.000000
2023-02-11T12:15:24.576Z,0.000000
2023-02-11T12:20:32.449Z,0.000000
2023-02-11T12:25:26.096Z,0.000000
2023-02-11T12:30:26.970Z,0.000000
2023-02-11T12:35:24.386Z,0.000000
2023-02-11T12:40:17.806Z,0.000000
2023-02-11T12:45:23.321Z,0.000000
2023-02-11T12:50:27.289Z,0.000000
2023-02-11T12:55:27.103Z,0.000000
2023-02-11T13:00:26.447Z,0.000000
2023-02-11T13:05:25.836Z,0.000000
2023-02-11T13:10:16.711Z,0.000000
2023-02-11T13:15:19.605Z,0.000000
2023-02-11T13:20:25.432Z,0.000000
2023-02-11T13:25:19.977Z,0.000000
2023-02-11T13:30:18.376Z,0.000000
2023-02-11T13:35:34.776Z,0.000000
2023-02-11T13:40:29.153Z,0.000000
2023-02-11T13:45:28.889Z,0.000000
2023-02-11T13:50:32.156Z,0.000000
2023-02-11T13:55:23.002Z,0.000000
2023-02-11T14:00:20.273Z,0.000000
2023-02-11T14:05:22.982Z,0.000000
2023-02-11T14:10:23.215Z,0.000000
2023-02-11T14:15:29.861Z,0.000000
2023-02-11T14:20:16.705Z,0.000000
2023-02-11T14:25:30.150Z,0.000000
2023-02-11T14:30:31.899Z,0.000000
2023-02-11T14:35:16.080Z,0.000000
2023-02-11T14:40:27.721Z,0.000000
2023-02-11T14:45:16.286Z,0.000000
2023-02-11T14:50:24.147Z,0.000000
2023-02-11T14:55:17.706Z,0.000000
2023-02-11T15:00:16.314Z,0.000000
2023-02-11T15:05:16.844Z,0.000000
2023-02-11T15:10:17.828Z,0.002239
2023-02-11T15:15:18.179Z,0.006717
2023-02-11T15:20:15.772Z,0.093107
2023-02-11T15:25:15.599Z,0.846232
2023-02-11T15:30:20.058Z,2.723135
2023-02-11T15:35:21.710Z,5.242819
2023-02-11T15:40:31.081Z,7.871851
2023-02-11T15:45:15.729Z,10.349785
2023-02-11T15:50:15.922Z,13.229935
2023-02-11T15:55:18.110Z,16.026849
2023-02-11T16:00:20.560Z,19.268968
2023-02-11T16:05:17.174Z,23.202100
2023-02-11T16:10:15.923Z,25.814279
2023-02-11T16:15:17.266Z,28.234357
2023-02-11T16:20:28.856Z,31.076629
2023-02-11T16:25:19.042Z,35.139153
2023-02-11T16:30:24.048Z,37.954516
2023-02-11T16:35:18.655Z,43.685293
2023-02-11T16:40:17.728Z,57.119632
2023-02-11T16:45:25.636Z,56.964616
2023-02-11T16:50:17.589Z,69.441735
2023-02-11T16:55:16.176Z,56.470666
2023-02-11T17:00:16.997Z,72.934397
2023-02-11T17:05:15.789Z,90.240897
2023-02-11T17:10:15.597Z,95.032626
2023-02-11T17:15:15.713Z,103.943918
2023-02-11T17:20:16.172Z,115.975618
2023-02-11T17:25:16.508Z,132.048769
2023-02-11T17:30:16.594Z,150.830280
2023-02-11T17:35:15.778Z,159.447611
2023-02-11T17:40:16.439Z,168.297714
2023-02-11T17:45:17.248Z,184.185447
2023-02-11T17:50:16.362Z,161.970514
2023-02-11T17:55:16.697Z,133.608494
2023-02-11T18:00:17.714Z,88.516433
2023-02-11T18:05:17.670Z,83.388853
2023-02-11T18:10:16.929Z,162.093976
2023-02-11T18:15:17.904Z,217.916987
2023-02-11T18:20:15.860Z,259.282436
2023-02-11T18:25:16.945Z,279.648627
2023-02-11T18:30:16.258Z,290.010545
2023-02-11T18:35:16.832Z,297.143132
2023-02-11T18:40:15.552Z,329.004147
2023-02-11T18:45:16.164Z,298.819335
2023-02-11T18:50:15.776Z,218.512535
2023-02-11T18:55:23.238Z,318.870065
2023-02-11T19:00:16.547Z,329.256661
2023-02-11T19:05:17.682Z,366.275413
2023-02-11T19:10:16.658Z,370.394838
2023-02-11T19:15:17.902Z,374.977821
2023-02-11T19:20:17.351Z,365.399822
2023-02-11T19:25:18.138Z,311.943520
2023-02-11T19:30:15.955Z,378.122510
2023-02-11T19:35:16.069Z,381.176329
2023-02-11T19:40:18.600Z,379.057347
2023-02-11T19:45:23.230Z,391.517107
2023-02-11T19:50:16.819Z,393.438055
2023-02-11T19:55:17.973Z,385.361957
2023-02-11T20:00:18.036Z,390.157261
2023-02-11T20:05:17.236Z,386.401574
2023-02-11T20:10:18.392Z,375.364340
2023-02-11T20:15:16.088Z,381.383591
2023-02-11T20:20:16.004Z,386.216305
2023-02-11T20:25:17.192Z,392.332354
2023-02-11T20:30:17.091Z,394.934040
2023-02-11T20:35:16.795Z,377.264325
2023-02-11T20:40:16.309Z,351.837084
2023-02-11T20:45:16.626Z,375.774702
2023-02-11T20:50:16.683Z,388.924151
2023-02-11T20:55:16.362Z,419.228692
2023-02-11T21:00:17.279Z,397.834484
2023-02-11T21:05:16.465Z,396.978883
2023-02-11T21:10:19.330Z,377.488203
2023-02-11T21:15:16.970Z,356.628708
2023-02-11T21:20:41.369Z,370.408836
2023-02-11T21:25:41.870Z,376.354411
2023-02-11T21:30:40.351Z,362.444912
2023-02-11T21:35:23.478Z,365.807193
2023-02-11T21:40:27.726Z,364.624187
2023-02-11T21:45:28.325Z,331.924003
2023-02-11T21:50:17.836Z,327.923542
2023-02-11T21:55:31.834Z,320.061465
2023-02-11T22:00:31.739Z,328.541000
2023-02-11T22:05:26.450Z,348.408335
2023-02-11T22:10:25.038Z,332.356312
2023-02-11T22:15:27.833Z,308.846047
2023-02-11T22:20:24.162Z,300.962352
2023-02-11T22:25:23.330Z,242.694799
2023-02-11T22:30:26.389Z,258.579549
2023-02-11T22:35:36.015Z,230.818771
2023-02-11T22:40:26.959Z,191.032347
2023-02-11T22:45:35.858Z,166.800712
2023-02-11T22:50:22.636Z,166.509450
2023-02-11T22:55:19.815Z,166.631221
2023-02-11T23:00:34.098Z,167.176213
2023-02-11T23:05:26.002Z,163.993958
2023-02-11T23:10:22.624Z,157.179144
2023-02-11T23:15:15.644Z,169.596824
2023-02-11T23:20:21.028Z,133.555485
2023-02-11T23:25:19.832Z,108.270020
2023-02-11T23:30:16.513Z,98.842591
2023-02-11T23:35:21.901Z,92.592348
2023-02-11T23:40:23.063Z,86.030458
2023-02-11T23:45:17.381Z,91.068080
2023-02-11T23:50:18.328Z,94.119264
2023-02-11T23:55:19.938Z,86.165104
